createdAt,value
2023-02-11T00:00:33.434Z,92
2023-02-11T00:01:41.648Z,81
2023-02-11T00:02:58.388Z,90
2023-02-11T00:04:05.512Z,88
2023-02-11T00:05:16.317Z,89
2023-02-11T00:06:23.543Z,89
2023-02-11T00:07:33.262Z,90
2023-02-11T00:08:40.545Z,95
2023-02-11T00:09:51.372Z,90
2023-02-11T00:10:58.333Z,92
2023-02-11T00:12:08.688Z,87
2023-02-11T00:13:15.777Z,98
2023-02-11T00:14:27.764Z,94
2023-02-11T00:15:53.173Z,94
2023-02-11T00:17:00.657Z,89
2023-02-11T00:18:09.410Z,95
2023-02-11T00:19:16.984Z,100
2023-02-11T00:20:26.828Z,97
2023-02-11T00:21:34.064Z,89
2023-02-11T00:22:54.775Z,92
2023-02-11T00:24:03.044Z,92
2023-02-11T00:25:10.550Z,97
2023-02-11T00:26:17.503Z,95
2023-02-11T00:27:44.273Z,103
2023-02-11T00:28:52.573Z,96
2023-02-11T00:30:04.895Z,101
2023-02-11T00:31:12.241Z,92
2023-02-11T00:32:22.100Z,96
2023-02-11T00:33:34.522Z,93
2023-02-11T00:34:41.967Z,91
2023-02-11T00:35:53.254Z,98
2023-02-11T00:37:00.105Z,88
2023-02-11T00:38:09.782Z,94
2023-02-11T00:39:17.336Z,104
2023-02-11T00:40:26.164Z,95
2023-02-11T00:41:34.581Z,93
2023-02-11T00:42:42.493Z,86
2023-02-11T00:43:52.966Z,91
2023-02-11T00:45:00.378Z,86
2023-02-11T00:46:07.652Z,89
2023-02-11T00:47:18.072Z,88
2023-02-11T00:48:26.687Z,89
2023-02-11T00:49:34.275Z,86
2023-02-11T00:50:45.799Z,90
2023-02-11T00:51:54.478Z,88
2023-02-11T00:53:04.146Z,96
2023-02-11T00:54:16.507Z,93
2023-02-11T00:55:26.410Z,92
2023-02-11T00:56:34.172Z,94
2023-02-11T00:57:42.820Z,90
2023-02-11T00:58:52.385Z,90
2023-02-11T01:00:12.385Z,90
2023-02-11T01:01:24.969Z,88
2023-02-11T01:02:32.121Z,83
2023-02-11T01:03:40.172Z,85
2023-02-11T01:04:47.459Z,91
2023-02-11T01:05:54.728Z,95
2023-02-11T01:07:04.861Z,85
2023-02-11T01:08:22.995Z,90
2023-02-11T01:09:30.262Z,93
2023-02-11T01:10:39.334Z,93
2023-02-11T01:11:47.609Z,91
2023-02-11T01:12:58.898Z,102
2023-02-11T01:14:05.921Z,96
2023-02-11T01:15:14.699Z,98
2023-02-11T01:16:21.963Z,101
2023-02-11T01:18:07.699Z,103
2023-02-11T01:19:15.000Z,101
2023-02-11T01:20:22.363Z,90
2023-02-11T01:21:33.799Z,101
2023-02-11T01:22:47.173Z,96
2023-02-11T01:23:54.352Z,102
2023-02-11T01:25:02.021Z,105
2023-02-11T01:26:18.679Z,100
2023-02-11T01:27:26.588Z,93
2023-02-11T01:28:34.914Z,93
2023-02-11T01:29:43.301Z,95
2023-02-11T01:31:08.761Z,92
2023-02-11T01:32:17.156Z,88
2023-02-11T01:33:28.753Z,93
2023-02-11T01:34:37.144Z,84
2023-02-11T01:35:47.963Z,91
2023-02-11T01:36:59.483Z,83
2023-02-11T01:38:08.997Z,75
2023-02-11T01:39:15.880Z,82
2023-02-11T01:40:26.657Z,81
2023-02-11T01:41:34.632Z,77
2023-02-11T01:42:52.325Z,77
2023-02-11T01:44:04.728Z,79
2023-02-11T01:45:40.495Z,70
2023-02-11T01:47:00.987Z,60
2023-02-11T01:48:10.861Z,64
2023-02-11T01:49:19.596Z,69
2023-02-11T01:50:31.979Z,66
2023-02-11T01:51:41.575Z,60
2023-02-11T01:52:58.142Z,51
2023-02-11T01:54:08.413Z,59
2023-02-11T01:55:21.284Z,57
2023-02-11T01:56:34.732Z,44
2023-02-11T01:57:51.166Z,53
2023-02-11T01:58:58.944Z,57
2023-02-11T02:00:15.675Z,47
2023-02-11T02:01:28.710Z,53
2023-02-11T02:02:36.577Z,38
2023-02-11T02:03:49.303Z,37
2023-02-11T02:05:06.236Z,46
2023-02-11T02:06:23.519Z,41
2023-02-11T02:07:30.974Z,47
2023-02-11T02:08:41.632Z,48
2023-02-11T02:09:51.621Z,39
2023-02-11T02:11:01.243Z,36
2023-02-11T02:12:08.709Z,39
2023-02-11T02:13:16.142Z,38
2023-02-11T02:14:23.912Z,48
2023-02-11T02:15:34.965Z,38
2023-02-11T02:16:42.167Z,41
2023-02-11T02:17:49.482Z,37
2023-02-11T02:19:11.092Z,36
2023-02-11T02:20:26.153Z,29
2023-02-11T02:21:41.240Z,27
2023-02-11T02:23:16.434Z,37
2023-02-11T02:24:31.195Z,38
2023-02-11T02:25:47.375Z,30
2023-02-11T02:27:13.260Z,37
2023-02-11T02:28:23.668Z,38
2023-02-11T02:29:35.659Z,29
2023-02-11T02:30:43.600Z,30
2023-02-11T02:32:05.916Z,35
2023-02-11T02:33:23.955Z,32
2023-02-11T02:34:41.670Z,28
2023-02-11T02:36:03.402Z,35
2023-02-11T02:37:29.117Z,29
2023-02-11T02:38:42.815Z,28
2023-02-11T02:39:59.444Z,31
2023-02-11T02:41:06.489Z,25
2023-02-11T02:42:14.501Z,27
2023-02-11T02:43:21.594Z,25
2023-02-11T02:44:29.532Z,28
2023-02-11T02:45:38.531Z,26
2023-02-11T02:46:55.615Z,30
2023-02-11T02:48:03.792Z,31
2023-02-11T02:49:11.473Z,31
2023-02-11T02:50:23.724Z,36
2023-02-11T02:51:31.092Z,31
2023-02-11T02:52:43.168Z,32
2023-02-11T02:53:53.866Z,32
2023-02-11T02:55:24.568Z,36
2023-02-11T02:56:58.900Z,32
2023-02-11T02:58:23.204Z,30
2023-02-11T02:59:59.395Z,25
2023-02-11T03:01:12.791Z,29
2023-02-11T03:02:28.310Z,33
2023-02-11T03:03:52.921Z,33
2023-02-11T03:05:12.423Z,35
2023-02-11T03:06:26.085Z,41
2023-02-11T03:07:38.017Z,32
2023-02-11T03:08:45.916Z,33
2023-02-11T03:09:54.310Z,29
2023-02-11T03:11:06.997Z,39
2023-02-11T03:12:15.371Z,36
2023-02-11T03:13:32.360Z,40
2023-02-11T03:14:44.901Z,38
2023-02-11T03:16:01.552Z,34
2023-02-11T03:17:09.608Z,34
2023-02-11T03:18:17.577Z,25
2023-02-11T03:19:25.022Z,31
2023-02-11T03:20:37.586Z,32
2023-02-11T03:21:46.220Z,34
2023-02-11T03:22:53.655Z,29
2023-02-11T03:24:06.095Z,32
2023-02-11T03:25:17.672Z,28
2023-02-11T03:26:25.454Z,28
2023-02-11T03:27:33.611Z,32
2023-02-11T03:28:56.878Z,30
2023-02-11T03:30:16.500Z,29
2023-02-11T03:31:39.244Z,29
2023-02-11T03:32:51.262Z,34
2023-02-11T03:34:01.745Z,34
2023-02-11T03:35:12.345Z,25
2023-02-11T03:36:52.650Z,31
2023-02-11T03:38:57.502Z,30
2023-02-11T03:40:05.917Z,35
2023-02-11T03:41:16.922Z,31
2023-02-11T03:42:24.082Z,30
2023-02-11T03:43:39.612Z,32
2023-02-11T03:44:50.279Z,34
2023-02-11T03:46:00.295Z,31
2023-02-11T03:47:13.593Z,32
2023-02-11T03:48:21.308Z,33
2023-02-11T03:49:57.903Z,28
2023-02-11T03:51:06.528Z,32
2023-02-11T03:52:24.538Z,31
2023-02-11T03:53:32.843Z,40
2023-02-11T03:54:41.757Z,42
2023-02-11T03:55:55.402Z,38
2023-02-11T03:57:03.215Z,27
2023-02-11T03:58:10.405Z,32
2023-02-11T03:59:18.131Z,33
2023-02-11T04:00:27.754Z,30
2023-02-11T04:01:35.193Z,28
2023-02-11T04:02:42.898Z,40
2023-02-11T04:03:50.769Z,34
2023-02-11T04:04:59.518Z,28
2023-02-11T04:06:09.242Z,26
2023-02-11T04:07:21.647Z,28
2023-02-11T04:08:29.554Z,41
2023-02-11T04:09:38.130Z,34
2023-02-11T04:10:45.366Z,27
2023-02-11T04:11:55.181Z,35
2023-02-11T04:13:02.567Z,37
2023-02-11T04:14:12.774Z,25
2023-02-11T04:15:20.856Z,28
2023-02-11T04:16:34.852Z,28
2023-02-11T04:17:42.914Z,28
2023-02-11T04:18:50.151Z,28
2023-02-11T04:20:02.130Z,32
2023-02-11T04:21:09.286Z,28
2023-02-11T04:22:17.029Z,29
2023-02-11T04:23:25.051Z,28
2023-02-11T04:24:32.347Z,41
2023-02-11T04:25:39.759Z,27
2023-02-11T04:26:47.567Z,27
2023-02-11T04:27:59.272Z,34
2023-02-11T04:29:06.914Z,32
2023-02-11T04:30:16.512Z,30
2023-02-11T04:31:26.486Z,27
2023-02-11T04:32:33.488Z,30
2023-02-11T04:33:40.367Z,25
2023-02-11T04:34:50.381Z,26
2023-02-11T04:36:07.769Z,38
2023-02-11T04:37:20.839Z,36
2023-02-11T04:38:28.716Z,32
2023-02-11T04:39:36.703Z,31
2023-02-11T04:40:48.111Z,27
2023-02-11T04:41:55.227Z,37
2023-02-11T04:43:02.614Z,26
2023-02-11T04:44:11.228Z,30
2023-02-11T04:45:19.470Z,30
2023-02-11T04:46:26.709Z,29
2023-02-11T04:47:34.608Z,34
2023-02-11T04:48:41.845Z,29
2023-02-11T04:49:52.398Z,27
2023-02-11T04:51:10.697Z,36
2023-02-11T04:52:28.332Z,26
2023-02-11T04:53:38.392Z,34
2023-02-11T04:54:47.205Z,25
2023-02-11T04:56:04.764Z,37
2023-02-11T04:57:14.424Z,34
2023-02-11T04:58:21.940Z,26
2023-02-11T04:59:29.693Z,33
2023-02-11T05:00:37.403Z,33
2023-02-11T05:01:53.852Z,31
2023-02-11T05:03:02.099Z,27
2023-02-11T05:04:11.837Z,28
2023-02-11T05:05:26.195Z,27
2023-02-11T05:06:34.089Z,26
2023-02-11T05:07:44.723Z,28
2023-02-11T05:08:52.962Z,32
2023-02-11T05:10:00.120Z,38
2023-02-11T05:11:07.032Z,30
2023-02-11T05:12:15.330Z,31
2023-02-11T05:13:23.838Z,33
2023-02-11T05:14:40.475Z,29
2023-02-11T05:15:50.705Z,29
2023-02-11T05:16:58.114Z,30
2023-02-11T05:18:16.559Z,38
2023-02-11T05:19:23.882Z,31
2023-02-11T05:20:32.454Z,36
2023-02-11T05:21:41.043Z,39
2023-02-11T05:22:49.268Z,34
2023-02-11T05:24:00.397Z,35
2023-02-11T05:25:08.887Z,34
2023-02-11T05:26:16.373Z,31
2023-02-11T05:27:32.029Z,35
2023-02-11T05:28:39.334Z,38
2023-02-11T05:29:46.852Z,30
2023-02-11T05:30:57.099Z,31
2023-02-11T05:32:05.050Z,30
2023-02-11T05:33:12.706Z,29
2023-02-11T05:34:19.906Z,29
2023-02-11T05:35:32.538Z,35
2023-02-11T05:36:42.895Z,25
2023-02-11T05:37:52.973Z,33
2023-02-11T05:39:15.121Z,35
2023-02-11T05:40:22.742Z,32
2023-02-11T05:41:30.472Z,34
2023-02-11T05:42:39.806Z,39
2023-02-11T05:43:46.959Z,30
2023-02-11T05:45:10.432Z,36
2023-02-11T05:46:19.353Z,29
2023-02-11T05:47:26.815Z,27
2023-02-11T05:48:42.542Z,34
2023-02-11T05:49:52.761Z,32
2023-02-11T05:50:59.729Z,30
2023-02-11T05:52:16.427Z,33
2023-02-11T05:53:24.530Z,31
2023-02-11T05:54:34.630Z,42
2023-02-11T05:55:48.713Z,39
2023-02-11T05:57:05.737Z,37
2023-02-11T05:58:13.794Z,35
2023-02-11T05:59:25.843Z,36
2023-02-11T06:00:33.148Z,29
2023-02-11T06:01:43.758Z,45
2023-02-11T06:02:56.653Z,38
2023-02-11T06:04:04.533Z,33
2023-02-11T06:05:11.598Z,38
2023-02-11T06:06:27.712Z,36
2023-02-11T06:07:39.322Z,39
2023-02-11T06:09:04.328Z,35
2023-02-11T06:10:14.249Z,39
2023-02-11T06:11:21.309Z,35
2023-02-11T06:12:28.865Z,40
2023-02-11T06:13:41.138Z,37
2023-02-11T06:14:48.231Z,48
2023-02-11T06:16:08.143Z,34
2023-02-11T06:17:16.837Z,44
2023-02-11T06:18:27.717Z,48
2023-02-11T06:19:34.641Z,45
2023-02-11T06:20:42.737Z,47
2023-02-11T06:21:55.464Z,52
2023-02-11T06:23:05.224Z,53
2023-02-11T06:24:12.942Z,52
2023-02-11T06:25:20.154Z,57
2023-02-11T06:26:27.381Z,49
2023-02-11T06:27:38.173Z,50
2023-02-11T06:28:47.619Z,46
2023-02-11T06:29:54.653Z,56
2023-02-11T06:31:04.122Z,46
2023-02-11T06:32:23.424Z,52
2023-02-11T06:33:18.353Z,47
2023-02-11T06:34:25.362Z,54
2023-02-11T06:35:45.130Z,49
2023-02-11T06:36:52.992Z,51
2023-02-11T06:38:10.438Z,52
2023-02-11T06:39:20.858Z,46
2023-02-11T06:40:27.924Z,53
2023-02-11T06:41:36.923Z,58
2023-02-11T06:42:45.016Z,54
2023-02-11T06:43:52.005Z,48
2023-02-11T06:45:17.319Z,54
2023-02-11T06:46:24.357Z,51
2023-02-11T06:47:32.106Z,46
2023-02-11T06:48:39.247Z,57
2023-02-11T06:49:46.501Z,55
2023-02-11T06:50:53.608Z,50
2023-02-11T06:52:00.605Z,57
2023-02-11T06:53:20.498Z,47
2023-02-11T06:54:36.740Z,52
2023-02-11T06:55:43.700Z,55
2023-02-11T06:57:09.099Z,54
2023-02-11T06:58:16.040Z,53
2023-02-11T06:59:23.096Z,58
2023-02-11T07:00:30.234Z,55
2023-02-11T07:02:20.850Z,52
2023-02-11T07:03:26.733Z,52
2023-02-11T07:04:34.651Z,45
2023-02-11T07:06:25.871Z,52
2023-02-11T07:07:34.177Z,60
2023-02-11T07:08:44.027Z,52
2023-02-11T07:10:01.067Z,51
2023-02-11T07:11:08.438Z,55
2023-02-11T07:12:23.903Z,58
2023-02-11T07:13:31.442Z,56
2023-02-11T07:14:50.607Z,47
2023-02-11T07:15:57.822Z,54
2023-02-11T07:17:05.006Z,54
2023-02-11T07:18:14.582Z,54
2023-02-11T07:19:19.230Z,53
2023-02-11T07:20:26.685Z,49
2023-02-11T07:21:47.175Z,56
2023-02-11T07:23:00.488Z,58
2023-02-11T07:24:10.431Z,53
2023-02-11T07:25:16.319Z,55
2023-02-11T07:26:24.441Z,56
2023-02-11T07:27:31.782Z,59
2023-02-11T07:28:44.150Z,58
2023-02-11T07:29:51.553Z,64
2023-02-11T07:30:58.635Z,57
2023-02-11T07:32:13.541Z,59
2023-02-11T07:33:20.666Z,59
2023-02-11T07:34:27.620Z,60
2023-02-11T07:35:37.331Z,64
2023-02-11T07:36:45.497Z,70
2023-02-11T07:37:52.522Z,61
2023-02-11T07:38:59.435Z,65
2023-02-11T07:40:07.169Z,63
2023-02-11T07:41:16.405Z,63
2023-02-11T07:42:23.316Z,70
2023-02-11T07:43:30.378Z,63
2023-02-11T07:44:37.766Z,65
2023-02-11T07:45:56.156Z,64
2023-02-11T07:47:05.742Z,64
2023-02-11T07:48:12.888Z,61
2023-02-11T07:49:19.963Z,62
2023-02-11T07:50:30.700Z,66
2023-02-11T07:51:38.089Z,59
2023-02-11T07:52:49.080Z,65
2023-02-11T07:54:00.048Z,61
2023-02-11T07:55:16.351Z,62
2023-02-11T07:56:33.882Z,59
2023-02-11T07:57:41.189Z,58
2023-02-11T07:59:06.536Z,60
2023-02-11T08:00:28.109Z,63
2023-02-11T08:01:36.521Z,60
2023-02-11T08:02:55.860Z,59
2023-02-11T08:04:07.512Z,59
2023-02-11T08:05:16.697Z,63
2023-02-11T08:06:23.870Z,62
2023-02-11T08:07:34.686Z,56
2023-02-11T08:08:43.836Z,55
2023-02-11T08:09:53.956Z,62
2023-02-11T08:11:01.282Z,55
2023-02-11T08:12:14.664Z,55
2023-02-11T08:13:22.598Z,55
2023-02-11T08:14:33.043Z,50
2023-02-11T08:15:41.605Z,57
2023-02-11T08:16:50.517Z,53
2023-02-11T08:17:57.471Z,55
2023-02-11T08:19:05.645Z,54
2023-02-11T08:20:21.767Z,43
2023-02-11T08:21:28.729Z,54
2023-02-11T08:22:55.692Z,52
2023-02-11T08:24:05.809Z,50
2023-02-11T08:25:13.000Z,55
2023-02-11T08:26:38.460Z,54
2023-02-11T08:27:52.316Z,52
2023-02-11T08:28:59.871Z,56
2023-02-11T08:30:22.662Z,54
2023-02-11T08:31:30.397Z,58
2023-02-11T08:33:03.527Z,52
2023-02-11T08:34:20.631Z,57
2023-02-11T08:35:27.597Z,55
2023-02-11T08:36:34.644Z,55
2023-02-11T08:37:41.583Z,58
2023-02-11T08:38:49.289Z,55
2023-02-11T08:40:15.247Z,62
2023-02-11T08:41:27.782Z,53
2023-02-11T08:42:35.695Z,53
2023-02-11T08:43:46.955Z,55
2023-02-11T08:44:55.364Z,56
2023-02-11T08:46:02.625Z,56
2023-02-11T08:47:27.785Z,56
2023-02-11T08:48:35.229Z,55
2023-02-11T08:49:42.163Z,47
2023-02-11T08:50:50.792Z,54
2023-02-11T08:52:03.845Z,57
2023-02-11T08:53:11.457Z,52
2023-02-11T08:54:18.651Z,47
2023-02-11T08:55:34.252Z,52
2023-02-11T08:57:01.958Z,44
2023-02-11T08:58:08.956Z,39
2023-02-11T08:59:15.812Z,35
2023-02-11T09:00:44.736Z,43
2023-02-11T09:01:51.921Z,43
2023-02-11T09:02:58.732Z,49
2023-02-11T09:05:15.032Z,45
2023-02-11T09:06:35.424Z,46
2023-02-11T09:08:21.516Z,49
2023-02-11T09:09:28.473Z,41
2023-02-11T09:11:18.536Z,29
2023-02-11T09:12:25.804Z,39
2023-02-11T09:13:37.933Z,39
2023-02-11T09:15:06.823Z,30
2023-02-11T09:16:23.094Z,25
2023-02-11T09:17:30.175Z,29
2023-02-11T09:19:30.869Z,32
2023-02-11T09:20:39.612Z,41
2023-02-11T09:21:46.855Z,31
2023-02-11T09:22:53.825Z,35
2023-02-11T09:24:02.350Z,37
2023-02-11T09:25:09.588Z,39
2023-02-11T09:26:16.615Z,39
2023-02-11T09:27:26.521Z,32
2023-02-11T09:29:16.492Z,26
2023-02-11T09:30:41.798Z,44
2023-02-11T09:32:09.717Z,37
2023-02-11T09:33:31.071Z,37
2023-02-11T09:34:38.153Z,39
2023-02-11T09:36:55.302Z,42
2023-02-11T09:38:02.398Z,33
2023-02-11T09:39:13.090Z,31
2023-02-11T09:40:29.193Z,32
2023-02-11T09:41:36.039Z,34
2023-02-11T09:42:49.147Z,33
2023-02-11T09:44:01.550Z,40
2023-02-11T09:45:17.872Z,33
2023-02-11T09:46:32.076Z,38
2023-02-11T09:47:40.018Z,48
2023-02-11T09:48:50.618Z,39
2023-02-11T09:49:57.990Z,48
2023-02-11T09:51:12.794Z,30
2023-02-11T09:52:33.335Z,39
2023-02-11T09:53:50.634Z,35
2023-02-11T09:54:57.636Z,45
2023-02-11T09:56:07.470Z,48
2023-02-11T09:58:32.051Z,58
2023-02-11T09:59:43.614Z,43
2023-02-11T10:00:53.488Z,39
2023-02-11T10:02:59.726Z,42
2023-02-11T10:04:30.181Z,38
2023-02-11T10:05:47.200Z,46
2023-02-11T10:06:59.997Z,41
2023-02-11T10:08:34.818Z,38
2023-02-11T10:09:45.131Z,37
2023-02-11T10:11:20.057Z,46
2023-02-11T10:12:29.189Z,34
2023-02-11T10:13:46.253Z,34
2023-02-11T10:15:34.631Z,34
2023-02-11T10:17:13.312Z,40
2023-02-11T10:18:47.736Z,32
2023-02-11T10:20:11.472Z,29
2023-02-11T10:21:23.502Z,42
2023-02-11T10:22:40.775Z,46
2023-02-11T10:24:08.062Z,43
2023-02-11T10:25:18.191Z,48
2023-02-11T10:26:26.053Z,28
2023-02-11T10:27:37.983Z,37
2023-02-11T10:28:53.638Z,35
2023-02-11T10:30:09.398Z,38
2023-02-11T10:31:22.346Z,33
2023-02-11T10:32:39.529Z,38
2023-02-11T10:33:51.464Z,40
2023-02-11T10:35:02.042Z,48
2023-02-11T10:36:15.818Z,41
2023-02-11T10:37:46.997Z,43
2023-02-11T10:38:54.563Z,60
2023-02-11T10:40:07.071Z,55
2023-02-11T10:41:19.831Z,52
2023-02-11T10:42:26.815Z,30
2023-02-11T10:43:34.506Z,41
2023-02-11T10:44:44.213Z,33
2023-02-11T10:46:14.575Z,32
2023-02-11T10:47:27.253Z,25
2023-02-11T10:48:35.083Z,30
2023-02-11T10:49:55.134Z,33
2023-02-11T10:51:20.939Z,35
2023-02-11T10:52:55.874Z,39
2023-02-11T10:54:13.786Z,34
2023-02-11T10:56:10.578Z,36
2023-02-11T10:58:27.497Z,38
2023-02-11T11:02:03.426Z,40
2023-02-11T11:04:16.840Z,40
2023-02-11T11:09:40.112Z,31
2023-02-11T11:11:29.833Z,29
2023-02-11T11:12:49.731Z,44
2023-02-11T11:14:18.567Z,46
2023-02-11T11:15:48.379Z,36
2023-02-11T11:22:02.032Z,46
2023-02-11T11:24:21.665Z,50
2023-02-11T11:25:37.203Z,42
2023-02-11T11:26:47.097Z,49
2023-02-11T11:27:56.630Z,40
2023-02-11T11:29:07.953Z,46
2023-02-11T11:30:31.458Z,41
2023-02-11T11:31:41.613Z,41
2023-02-11T11:32:58.033Z,43
2023-02-11T11:34:07.154Z,43
2023-02-11T11:35:24.514Z,55
2023-02-11T11:36:53.440Z,43
2023-02-11T11:38:02.396Z,51
2023-02-11T11:40:09.618Z,46
2023-02-11T11:42:13.025Z,53
2023-02-11T11:45:35.605Z,54
2023-02-11T11:48:02.336Z,54
2023-02-11T11:49:38.463Z,55
2023-02-11T11:50:57.549Z,64
2023-02-11T11:52:11.005Z,60
2023-02-11T11:53:25.759Z,48
2023-02-11T11:54:40.307Z,55
2023-02-11T11:55:48.097Z,46
2023-02-11T11:56:57.836Z,49
2023-02-11T11:58:05.449Z,56
2023-02-11T11:59:24.643Z,49
2023-02-11T12:01:49.962Z,47
2023-02-11T12:03:49.380Z,54
2023-02-11T12:05:18.244Z,51
2023-02-11T12:06:42.033Z,44
2023-02-11T12:08:57.805Z,46
2023-02-11T12:10:32.153Z,44
2023-02-11T12:12:05.160Z,46
2023-02-11T12:13:28.193Z,53
2023-02-11T12:14:48.991Z,48
2023-02-11T12:16:01.716Z,47
2023-02-11T12:17:18.287Z,49
2023-02-11T12:19:25.948Z,37
2023-02-11T12:21:32.644Z,45
2023-02-11T12:22:44.980Z,51
2023-02-11T12:25:14.849Z,37
2023-02-11T12:26:29.675Z,46
2023-02-11T12:27:47.140Z,52
2023-02-11T12:28:54.599Z,50
2023-02-11T12:30:04.696Z,48
2023-02-11T12:31:59.482Z,51
2023-02-11T12:34:09.194Z,59
2023-02-11T12:35:39.490Z,59
2023-02-11T12:37:34.834Z,58
2023-02-11T12:38:59.457Z,57
2023-02-11T12:40:59.902Z,56
2023-02-11T12:42:18.810Z,53
2023-02-11T12:43:41.356Z,62
2023-02-11T12:45:42.739Z,66
2023-02-11T12:47:32.980Z,65
2023-02-11T12:49:18.486Z,75
2023-02-11T12:51:05.650Z,72
2023-02-11T12:52:22.471Z,77
2023-02-11T12:54:01.794Z,86
2023-02-11T12:55:29.728Z,101
2023-02-11T12:57:28.247Z,109
2023-02-11T12:58:47.061Z,113
2023-02-11T12:59:46.123Z,115
2023-02-11T13:01:05.182Z,120
2023-02-11T13:02:13.805Z,122
2023-02-11T13:04:01.852Z,123
2023-02-11T13:05:14.387Z,134
2023-02-11T13:06:31.305Z,133
2023-02-11T13:08:27.006Z,133
2023-02-11T13:09:40.829Z,129
2023-02-11T13:11:14.305Z,136
2023-02-11T13:12:24.813Z,130
2023-02-11T13:13:42.829Z,131
2023-02-11T13:15:12.793Z,129
2023-02-11T13:16:39.424Z,120
2023-02-11T13:17:49.134Z,127
2023-02-11T13:19:01.730Z,123
2023-02-11T13:20:20.251Z,123
2023-02-11T13:22:05.674Z,132
2023-02-11T13:23:53.462Z,125
2023-02-11T13:25:04.507Z,125
2023-02-11T13:27:04.900Z,120
2023-02-11T13:28:15.101Z,128
2023-02-11T13:29:27.612Z,132
2023-02-11T13:30:53.492Z,130
2023-02-11T13:32:08.213Z,127
2023-02-11T13:36:16.760Z,127
2023-02-11T13:37:24.784Z,124
2023-02-11T13:38:46.641Z,126
2023-02-11T13:40:03.757Z,121
2023-02-11T13:41:16.097Z,120
2023-02-11T13:45:06.358Z,117
2023-02-11T13:46:21.876Z,117
2023-02-11T13:47:41.947Z,117
2023-02-11T13:48:49.096Z,117
2023-02-11T13:50:00.422Z,122
2023-02-11T13:51:29.837Z,120
2023-02-11T13:52:36.983Z,117
2023-02-11T13:53:57.975Z,131
2023-02-11T13:55:07.806Z,118
2023-02-11T13:56:17.522Z,122
2023-02-11T13:57:35.605Z,128
2023-02-11T13:58:43.115Z,121
2023-02-11T13:59:55.067Z,127
2023-02-11T14:01:03.500Z,127
2023-02-11T14:02:17.523Z,126
2023-02-11T14:03:33.099Z,120
2023-02-11T14:05:05.378Z,117
2023-02-11T14:06:27.629Z,123
2023-02-11T14:07:40.011Z,120
2023-02-11T14:09:07.887Z,118
2023-02-11T14:10:20.650Z,116
2023-02-11T14:11:37.819Z,116
2023-02-11T14:12:45.776Z,112
2023-02-11T14:14:15.758Z,121
2023-02-11T14:15:29.556Z,112
2023-02-11T14:16:53.895Z,122
2023-02-11T14:18:06.829Z,118
2023-02-11T14:19:21.604Z,122
2023-02-11T14:20:37.040Z,111
2023-02-11T14:21:44.871Z,105
2023-02-11T14:22:51.860Z,114
2023-02-11T14:23:59.525Z,112
2023-02-11T14:25:06.757Z,108
2023-02-11T14:26:19.888Z,106
2023-02-11T14:27:31.554Z,106
2023-02-11T14:28:47.229Z,103
2023-02-11T14:30:00.155Z,110
2023-02-11T14:31:16.235Z,118
2023-02-11T14:32:32.361Z,106
2023-02-11T14:33:49.257Z,123
2023-02-11T14:35:02.434Z,122
2023-02-11T14:36:19.028Z,116
2023-02-11T14:37:36.221Z,116
2023-02-11T14:38:47.661Z,110
2023-02-11T14:40:06.441Z,113
2023-02-11T14:41:15.671Z,108
2023-02-11T14:42:30.863Z,111
2023-02-11T14:43:42.974Z,110
2023-02-11T14:44:52.738Z,112
2023-02-11T14:46:00.452Z,119
2023-02-11T14:47:08.481Z,109
2023-02-11T14:48:21.661Z,113
2023-02-11T14:49:44.233Z,122
2023-02-11T14:50:55.035Z,115
2023-02-11T14:52:23.215Z,112
2023-02-11T14:53:30.525Z,120
2023-02-11T14:54:40.801Z,114
2023-02-11T14:55:49.958Z,111
2023-02-11T14:57:00.713Z,107
2023-02-11T14:58:18.054Z,86
2023-02-11T14:59:27.841Z,94
2023-02-11T15:00:36.956Z,97
2023-02-11T15:01:54.971Z,98
2023-02-11T15:03:05.614Z,103
2023-02-11T15:04:13.423Z,98
2023-02-11T15:05:53.054Z,104
2023-02-11T15:07:07.343Z,96
2023-02-11T15:08:14.438Z,101
2023-02-11T15:09:33.036Z,100
2023-02-11T15:10:46.433Z,107
2023-02-11T15:11:57.138Z,112
2023-02-11T15:13:14.022Z,102
2023-02-11T15:14:25.286Z,103
2023-02-11T15:15:34.912Z,100
2023-02-11T15:16:44.733Z,113
2023-02-11T15:17:52.952Z,97
2023-02-11T15:19:00.125Z,100
2023-02-11T15:20:07.138Z,107
2023-02-11T15:21:20.018Z,106
2023-02-11T15:22:29.055Z,102
2023-02-11T15:23:39.932Z,109
2023-02-11T15:24:47.822Z,103
2023-02-11T15:26:05.352Z,114
2023-02-11T15:27:19.078Z,115
2023-02-11T15:28:28.104Z,115
2023-02-11T15:29:38.570Z,120
2023-02-11T15:30:47.557Z,115
2023-02-11T15:32:01.121Z,125
2023-02-11T15:33:12.205Z,118
2023-02-11T15:34:22.122Z,126
2023-02-11T15:35:31.243Z,130
2023-02-11T15:36:41.903Z,123
2023-02-11T15:37:55.242Z,114
2023-02-11T15:39:02.562Z,124
2023-02-11T15:40:22.687Z,121
2023-02-11T15:41:31.149Z,120
2023-02-11T15:42:52.000Z,127
2023-02-11T15:43:45.662Z,122
2023-02-11T15:44:56.690Z,125
2023-02-11T15:46:12.007Z,127
2023-02-11T15:47:24.668Z,120
2023-02-11T15:48:32.264Z,125
2023-02-11T15:49:42.035Z,133
2023-02-11T15:50:59.049Z,135
2023-02-11T15:52:06.891Z,137
2023-02-11T15:53:14.430Z,142
2023-02-11T15:54:32.104Z,146
2023-02-11T15:55:39.467Z,148
2023-02-11T15:56:47.003Z,153
2023-02-11T15:57:56.910Z,159
2023-02-11T15:59:04.175Z,159
2023-02-11T16:00:18.066Z,174
2023-02-11T16:01:25.284Z,166
2023-02-11T16:02:35.496Z,206
2023-02-11T16:03:42.437Z,272
2023-02-11T16:04:50.600Z,285
2023-02-11T16:05:58.310Z,296
2023-02-11T16:07:15.520Z,299
2023-02-11T16:08:35.733Z,304
2023-02-11T16:09:43.317Z,288
2023-02-11T16:10:55.181Z,287
2023-02-11T16:12:05.533Z,285
2023-02-11T16:13:23.109Z,276
2023-02-11T16:14:30.297Z,263
2023-02-11T16:15:39.903Z,244
2023-02-11T16:16:47.657Z,243
2023-02-11T16:17:54.865Z,240
2023-02-11T16:19:05.068Z,235
2023-02-11T16:20:11.705Z,242
2023-02-11T16:21:19.080Z,237
2023-02-11T16:22:28.893Z,236
2023-02-11T16:23:53.741Z,232
2023-02-11T16:25:00.836Z,233
2023-02-11T16:26:08.837Z,227
2023-02-11T16:27:24.473Z,226
2023-02-11T16:28:39.552Z,219
2023-02-11T16:29:46.774Z,207
2023-02-11T16:30:58.900Z,203
2023-02-11T16:32:07.042Z,205
2023-02-11T16:33:18.281Z,204
2023-02-11T16:34:25.873Z,199
2023-02-11T16:35:35.549Z,200
2023-02-11T16:36:43.170Z,205
2023-02-11T16:37:54.100Z,196
2023-02-11T16:39:03.263Z,199
2023-02-11T16:40:13.161Z,197
2023-02-11T16:41:22.862Z,200
2023-02-11T16:43:30.473Z,190
2023-02-11T16:44:41.259Z,187
2023-02-11T16:45:51.658Z,189
2023-02-11T16:46:58.664Z,183
2023-02-11T16:48:54.294Z,175
2023-02-11T16:50:01.819Z,176
2023-02-11T16:51:28.824Z,174
2023-02-11T16:52:36.261Z,168
2023-02-11T16:53:46.450Z,164
2023-02-11T16:55:21.850Z,158
2023-02-11T16:56:27.812Z,150
2023-02-11T16:57:39.373Z,153
2023-02-11T16:58:47.671Z,149
2023-02-11T17:00:00.425Z,141
2023-02-11T17:01:52.848Z,141
2023-02-11T17:03:02.580Z,138
2023-02-11T17:04:48.285Z,130
2023-02-11T17:06:01.604Z,138
2023-02-11T17:07:08.706Z,136
2023-02-11T17:08:20.129Z,133
2023-02-11T17:09:30.218Z,132
2023-02-11T17:10:34.366Z,130
2023-02-11T17:11:41.516Z,126
2023-02-11T17:12:51.681Z,130
2023-02-11T17:13:58.796Z,114
2023-02-11T17:15:08.725Z,121
2023-02-11T17:16:16.084Z,120
2023-02-11T17:17:24.205Z,118
2023-02-11T17:18:34.369Z,119
2023-02-11T17:19:45.628Z,107
2023-02-11T17:20:54.343Z,106
2023-02-11T17:22:06.079Z,110
2023-02-11T17:23:13.908Z,117
2023-02-11T17:24:23.855Z,111
2023-02-11T17:25:30.985Z,107
2023-02-11T17:26:40.971Z,104
2023-02-11T17:27:52.876Z,106
2023-02-11T17:28:58.304Z,102
2023-02-11T17:30:08.221Z,99
2023-02-11T17:31:17.390Z,104
2023-02-11T17:32:25.424Z,91
2023-02-11T17:33:35.197Z,97
2023-02-11T17:34:40.819Z,105
2023-02-11T17:35:48.185Z,97
2023-02-11T17:36:58.638Z,106
2023-02-11T17:38:08.526Z,105
2023-02-11T17:39:23.395Z,105
2023-02-11T17:40:33.171Z,91
2023-02-11T17:41:42.996Z,87
2023-02-11T17:42:51.892Z,84
2023-02-11T17:43:59.772Z,79
2023-02-11T17:45:09.543Z,78
2023-02-11T17:46:19.463Z,84
2023-02-11T17:47:29.278Z,86
2023-02-11T17:48:38.461Z,70
2023-02-11T17:49:47.184Z,68
2023-02-11T17:50:55.572Z,61
2023-02-11T17:52:03.644Z,67
2023-02-11T17:53:13.903Z,59
2023-02-11T17:54:23.178Z,64
2023-02-11T17:55:36.024Z,61
2023-02-11T17:56:46.783Z,66
2023-02-11T17:57:55.422Z,65